createdAt,value
2019-04-26T00:00:10.892Z,4.47
2019-04-26T00:02:46.742Z,5.75
2019-04-26T00:05:16.745Z,2.00
2019-04-26T00:07:46.271Z,4.80
2019-04-26T00:10:19.633Z,2.90
2019-04-26T00:12:50.856Z,4.85
2019-04-26T00:15:27.548Z,3.65
2019-04-26T00:17:58.230Z,3.20
2019-04-26T00:20:27.260Z,3.47
2019-04-26T00:22:57.561Z,3.10
2019-04-26T00:25:26.311Z,3.75
2019-04-26T00:27:56.485Z,5.97
2019-04-26T00:33:00.862Z,4.65
2019-04-26T00:35:29.645Z,4.70
2019-04-26T00:37:58.347Z,2.92
2019-04-26T00:40:27.123Z,3.67
2019-04-26T00:42:57.648Z,6.00
2019-04-26T00:45:29.529Z,3.35
2019-04-26T00:47:59.949Z,2.77
2019-04-26T00:50:29.908Z,2.33
2019-04-26T00:53:00.214Z,3.90
2019-04-26T00:55:30.515Z,3.20
2019-04-26T00:57:59.661Z,2.05
2019-04-26T01:00:28.477Z,3.05
2019-04-26T01:02:57.914Z,2.87
2019-04-26T01:05:29.069Z,4.05
2019-04-26T01:07:58.073Z,2.17
2019-04-26T01:10:26.711Z,8.03
2019-04-26T01:12:55.319Z,2.57
2019-04-26T01:15:26.630Z,2.40
2019-04-26T01:17:55.451Z,2.65
2019-04-26T01:20:26.779Z,5.20
2019-04-26T01:22:58.949Z,3.33
2019-04-26T01:25:45.871Z,4.03
2019-04-26T01:28:18.519Z,3.17
2019-04-26T01:30:48.371Z,2.80
2019-04-26T01:33:17.827Z,1.50
2019-04-26T01:35:48.014Z,3.77
2019-04-26T01:38:17.021Z,2.67
2019-04-26T01:40:47.417Z,3.90
2019-04-26T01:43:24.358Z,3.35
2019-04-26T01:46:00.358Z,1.37
2019-04-26T01:48:44.048Z,2.12
2019-04-26T01:51:15.724Z,1.77
2019-04-26T01:53:47.945Z,4.60
2019-04-26T01:56:18.930Z,1.57
2019-04-26T01:58:48.469Z,4.80
2019-04-26T02:01:18.765Z,3.50
2019-04-26T02:03:47.491Z,3.42
2019-04-26T02:06:25.344Z,2.10
2019-04-26T02:08:46.697Z,3.80
2019-04-26T02:11:15.393Z,3.70
2019-04-26T02:13:44.821Z,1.57
2019-04-26T02:16:13.455Z,1.43
2019-04-26T02:18:42.785Z,4.10
2019-04-26T02:21:16.354Z,2.73
2019-04-26T02:23:58.999Z,3.03
2019-04-26T02:26:37.773Z,2.33
2019-04-26T02:29:12.069Z,4.13
2019-04-26T02:31:43.084Z,1.50
2019-04-26T02:34:13.474Z,1.30
2019-04-26T02:36:56.927Z,4.27
2019-04-26T02:39:22.428Z,3.30
2019-04-26T02:41:54.093Z,3.77
2019-04-26T02:44:28.981Z,2.40
2019-04-26T02:47:24.811Z,2.53
2019-04-26T02:49:57.252Z,3.63
2019-04-26T02:52:49.363Z,3.93
2019-04-26T02:55:49.953Z,2.27
2019-04-26T02:58:22.277Z,3.30
2019-04-26T03:00:52.272Z,3.10
2019-04-26T03:03:23.517Z,4.70
2019-04-26T03:05:54.334Z,1.60
2019-04-26T03:08:26.365Z,4.00
2019-04-26T03:10:57.999Z,2.47
2019-04-26T03:13:32.742Z,4.27
2019-04-26T03:16:18.293Z,4.23
2019-04-26T03:19:03.298Z,3.70
2019-04-26T03:21:47.207Z,2.93
2019-04-26T03:24:21.552Z,4.80
2019-04-26T03:27:14.341Z,3.27
2019-04-26T03:30:19.906Z,4.27
2019-04-26T03:33:09.617Z,3.93
2019-04-26T03:36:00.698Z,2.77
2019-04-26T03:39:04.268Z,2.77
2019-04-26T03:42:03.466Z,4.50
2019-04-26T03:44:38.851Z,2.93
2019-04-26T03:47:10.831Z,3.10
2019-04-26T03:50:02.208Z,2.80
2019-04-26T03:52:52.062Z,4.83
2019-04-26T03:55:28.138Z,9.47
2019-04-26T03:58:23.826Z,4.93
2019-04-26T04:00:55.855Z,2.83
2019-04-26T04:03:41.672Z,3.53
2019-04-26T04:06:12.612Z,4.70
2019-04-26T04:08:48.217Z,3.33
2019-04-26T04:11:26.739Z,3.60
2019-04-26T04:14:01.420Z,4.10
2019-04-26T04:16:59.352Z,4.87
2019-04-26T04:19:58.144Z,4.77
2019-04-26T04:22:40.856Z,3.83
2019-04-26T04:25:14.860Z,5.40
2019-04-26T04:28:03.439Z,6.87
2019-04-26T04:30:42.247Z,4.40
2019-04-26T04:33:32.779Z,4.47
2019-04-26T04:36:04.966Z,8.13
2019-04-26T04:38:44.050Z,6.27
2019-04-26T04:41:26.424Z,6.40
2019-04-26T04:44:07.883Z,6.87
2019-04-26T04:46:52.466Z,6.07
2019-04-26T04:49:48.944Z,6.87
2019-04-26T04:52:21.290Z,7.50
2019-04-26T04:55:06.652Z,8.07
2019-04-26T04:57:50.366Z,7.17
2019-04-26T05:00:41.382Z,5.17
2019-04-26T05:03:26.625Z,6.57
2019-04-26T05:06:38.798Z,8.97
2019-04-26T05:09:13.190Z,11.17
2019-04-26T05:11:51.889Z,10.53
2019-04-26T05:14:43.687Z,10.50
2019-04-26T05:17:41.796Z,9.47
2019-04-26T05:20:37.287Z,10.53
2019-04-26T05:23:42.229Z,8.83
2019-04-26T05:26:51.619Z,11.13
2019-04-26T05:29:33.901Z,12.10
2019-04-26T05:32:22.294Z,8.40
2019-04-26T05:35:10.857Z,7.90
2019-04-26T05:37:49.237Z,9.17
2019-04-26T05:40:39.982Z,11.30
2019-04-26T05:43:19.030Z,6.93
2019-04-26T05:46:23.222Z,8.78
2019-04-26T05:49:29.875Z,6.47
2019-04-26T05:52:22.556Z,6.83
2019-04-26T05:55:34.279Z,6.03
2019-04-26T05:58:12.249Z,7.17
2019-04-26T06:01:02.733Z,5.87
2019-04-26T06:03:54.342Z,6.20
2019-04-26T06:06:33.685Z,7.92
2019-04-26T06:09:26.690Z,12.28
2019-04-26T06:12:24.001Z,10.53
2019-04-26T06:15:21.927Z,11.07
2019-04-26T06:18:10.461Z,9.85
2019-04-26T06:20:45.711Z,13.85
2019-04-26T06:23:26.522Z,12.18
2019-04-26T06:26:37.930Z,12.27
2019-04-26T06:29:09.577Z,10.05
2019-04-26T06:31:46.997Z,11.50
2019-04-26T06:34:18.740Z,12.93
2019-04-26T06:37:10.315Z,13.20
2019-04-26T06:39:47.717Z,13.70
2019-04-26T06:42:28.829Z,12.25
2019-04-26T06:45:26.767Z,13.30
2019-04-26T06:48:00.092Z,12.30
2019-04-26T06:50:42.239Z,13.80
2019-04-26T06:53:16.627Z,17.30
2019-04-26T06:55:49.903Z,15.30
2019-04-26T06:58:46.176Z,15.88
2019-04-26T07:01:33.190Z,17.15
2019-04-26T07:04:26.422Z,17.87
2019-04-26T07:07:20.397Z,23.33
2019-04-26T07:10:04.298Z,24.55
2019-04-26T07:12:40.459Z,23.15
2019-04-26T07:15:47.079Z,21.80
2019-04-26T07:18:36.828Z,20.48
2019-04-26T07:21:19.268Z,21.57
2019-04-26T07:24:17.577Z,19.25
2019-04-26T07:27:09.015Z,19.87
2019-04-26T07:30:01.904Z,18.83
2019-04-26T07:33:04.182Z,19.75
2019-04-26T07:35:41.390Z,19.07
2019-04-26T07:38:55.727Z,19.85
2019-04-26T07:41:57.737Z,16.90
2019-04-26T07:44:48.986Z,21.47
2019-04-26T07:47:39.840Z,22.67
2019-04-26T07:50:44.414Z,20.33
2019-04-26T07:53:37.076Z,20.23
2019-04-26T07:56:09.323Z,21.30
2019-04-26T07:59:16.552Z,20.88
2019-04-26T08:02:21.654Z,21.48
2019-04-26T08:05:09.501Z,23.32
2019-04-26T08:07:50.718Z,19.90
2019-04-26T08:10:25.542Z,17.80
2019-04-26T08:13:04.459Z,19.23
2019-04-26T08:15:42.972Z,22.80
2019-04-26T08:18:31.051Z,23.27
2019-04-26T08:21:10.038Z,18.12
2019-04-26T08:23:42.288Z,22.20
2019-04-26T08:26:15.510Z,16.50
2019-04-26T08:28:46.746Z,18.65
2019-04-26T08:31:21.592Z,17.17
2019-04-26T08:33:53.600Z,19.67
2019-04-26T08:36:28.725Z,20.45
2019-04-26T08:39:05.946Z,18.48
2019-04-26T08:41:39.084Z,18.35
2019-04-26T08:47:01.186Z,18.80
2019-04-26T08:49:39.155Z,16.97
2019-04-26T08:52:14.207Z,18.03
2019-04-26T08:54:43.621Z,19.02
2019-04-26T08:57:14.651Z,17.47
2019-04-26T08:59:49.168Z,17.35
2019-04-26T09:02:41.468Z,16.60
2019-04-26T09:05:25.425Z,18.02
2019-04-26T09:07:58.912Z,15.32
2019-04-26T09:10:30.605Z,14.00
2019-04-26T09:13:04.223Z,14.75
2019-04-26T09:16:01.749Z,13.83
2019-04-26T09:18:42.390Z,15.77
2019-04-26T09:21:01.224Z,16.73
2019-04-26T09:23:53.569Z,15.05
2019-04-26T09:29:34.069Z,15.60
2019-04-26T09:32:13.169Z,16.12
2019-04-26T09:34:45.776Z,17.27
2019-04-26T09:37:19.239Z,16.73
2019-04-26T09:39:48.307Z,14.78
2019-04-26T09:42:42.185Z,15.83
2019-04-26T09:45:25.459Z,16.37
2019-04-26T09:48:00.025Z,15.78
2019-04-26T09:50:41.709Z,15.83
2019-04-26T09:53:13.897Z,15.32
2019-04-26T09:55:45.272Z,16.17
2019-04-26T09:58:14.774Z,17.52
2019-04-26T10:00:48.474Z,16.80
2019-04-26T10:03:26.579Z,20.65
2019-04-26T10:05:57.089Z,18.57
2019-04-26T10:08:28.126Z,15.43
2019-04-26T10:11:05.797Z,20.40
2019-04-26T10:13:38.336Z,23.80
2019-04-26T10:16:13.783Z,21.30
2019-04-26T10:18:44.227Z,18.95
2019-04-26T10:21:23.961Z,19.33
2019-04-26T10:23:52.677Z,24.63
2019-04-26T10:26:32.144Z,19.87
2019-04-26T10:29:00.891Z,22.20
2019-04-26T10:31:29.747Z,24.25
2019-04-26T10:33:59.101Z,21.77
2019-04-26T10:36:30.110Z,22.85
2019-04-26T10:38:59.815Z,28.20
2019-04-26T10:41:31.886Z,24.92
2019-04-26T10:44:01.436Z,28.20
2019-04-26T10:46:31.639Z,24.77
2019-04-26T10:49:08.975Z,25.30
2019-04-26T10:51:38.577Z,23.42
2019-04-26T10:54:13.365Z,23.15
2019-04-26T10:56:46.887Z,24.70
2019-04-26T10:59:22.656Z,26.63
2019-04-26T11:01:57.613Z,22.63
2019-04-26T11:04:28.749Z,21.30
2019-04-26T11:07:02.027Z,24.23
2019-04-26T11:09:42.746Z,20.40
2019-04-26T11:12:18.843Z,20.87
2019-04-26T11:14:53.302Z,22.40
2019-04-26T11:17:23.456Z,20.80
2019-04-26T11:19:52.619Z,21.83
2019-04-26T11:22:29.098Z,20.40
2019-04-26T11:24:53.742Z,19.73
2019-04-26T11:27:27.710Z,24.03
2019-04-26T11:30:00.076Z,19.40
2019-04-26T11:32:28.425Z,21.02
2019-04-26T11:34:58.760Z,18.37
2019-04-26T11:37:30.857Z,19.70
2019-04-26T11:39:59.608Z,17.03
2019-04-26T11:42:28.493Z,16.10
2019-04-26T11:45:06.078Z,13.87
2019-04-26T11:47:29.359Z,16.47
2019-04-26T11:49:59.915Z,15.63
2019-04-26T11:52:35.912Z,15.73
2019-04-26T11:55:19.546Z,14.98
2019-04-26T11:57:50.541Z,16.17
2019-04-26T12:00:22.671Z,13.65
2019-04-26T12:02:54.024Z,13.83
2019-04-26T12:05:24.558Z,14.40
2019-04-26T12:08:00.836Z,14.13
2019-04-26T12:10:33.745Z,15.48
2019-04-26T12:13:10.414Z,14.70
2019-04-26T12:15:43.678Z,13.68
2019-04-26T12:18:16.561Z,13.43
2019-04-26T12:20:45.266Z,13.67
2019-04-26T12:23:20.376Z,12.07
2019-04-26T12:25:48.291Z,15.53
2019-04-26T12:28:17.199Z,13.55
2019-04-26T12:30:45.958Z,12.82
2019-04-26T12:33:15.721Z,9.05
2019-04-26T12:35:44.457Z,8.28
2019-04-26T12:38:18.792Z,10.27
2019-04-26T12:40:51.632Z,7.53
2019-04-26T12:43:24.539Z,8.93
2019-04-26T12:45:59.666Z,9.63
2019-04-26T12:48:34.223Z,8.30
2019-04-26T12:51:04.443Z,7.33
2019-04-26T12:53:33.716Z,8.50
2019-04-26T12:56:04.810Z,6.17
2019-04-26T12:58:33.733Z,7.43
2019-04-26T13:01:02.590Z,9.37
2019-04-26T13:03:31.342Z,9.67
2019-04-26T13:06:01.803Z,9.77
2019-04-26T13:08:33.012Z,11.13
2019-04-26T13:11:15.108Z,8.23
2019-04-26T13:13:58.098Z,9.23
2019-04-26T13:16:34.160Z,9.10
2019-04-26T13:19:08.557Z,8.47
2019-04-26T13:21:44.543Z,9.60
2019-04-26T13:24:13.969Z,12.03
2019-04-26T13:26:42.988Z,6.83
2019-04-26T13:29:17.531Z,8.07
2019-04-26T13:31:48.014Z,9.73
2019-04-26T13:34:21.185Z,9.30
2019-04-26T13:36:52.645Z,9.50
2019-04-26T13:39:29.951Z,9.40
2019-04-26T13:42:04.601Z,9.43
2019-04-26T13:44:48.986Z,9.17
2019-04-26T13:47:21.204Z,9.10
2019-04-26T13:49:52.316Z,11.40
2019-04-26T13:52:25.061Z,10.47
2019-04-26T13:55:02.191Z,10.70
2019-04-26T13:57:31.254Z,9.77
2019-04-26T14:00:02.530Z,11.37
2019-04-26T14:02:30.349Z,11.17
2019-04-26T14:04:59.646Z,16.90
2019-04-26T14:07:30.645Z,18.33
2019-04-26T14:10:02.191Z,25.47
2019-04-26T14:12:32.471Z,27.70
2019-04-26T14:15:08.407Z,25.77
2019-04-26T14:17:45.445Z,17.33
2019-04-26T14:20:19.190Z,26.47
2019-04-26T14:23:11.351Z,27.80
2019-04-26T14:25:55.503Z,16.43
2019-04-26T14:28:26.855Z,15.03
2019-04-26T14:30:58.548Z,13.83
2019-04-26T14:33:30.716Z,19.77
2019-04-26T14:36:17.429Z,23.20
2019-04-26T14:38:44.274Z,19.13
2019-04-26T14:41:13.948Z,20.47
2019-04-26T14:43:45.071Z,21.60
2019-04-26T14:46:28.259Z,25.67
2019-04-26T14:49:01.435Z,27.97
2019-04-26T14:51:26.937Z,17.73
2019-04-26T14:53:58.650Z,17.03
2019-04-26T14:56:29.307Z,14.83
2019-04-26T14:59:01.815Z,15.50
2019-04-26T15:01:35.789Z,16.80
2019-04-26T15:04:23.233Z,14.87
2019-04-26T15:06:58.175Z,16.63
2019-04-26T15:09:32.725Z,16.77
2019-04-26T15:12:01.079Z,17.17
2019-04-26T15:14:28.806Z,15.80
2019-04-26T15:17:00.364Z,13.23
2019-04-26T15:19:35.400Z,16.93
2019-04-26T15:22:10.147Z,17.87
2019-04-26T15:24:38.627Z,17.27
2019-04-26T15:27:06.138Z,15.97
2019-04-26T15:29:36.688Z,15.67
2019-04-26T15:32:08.329Z,19.77
2019-04-26T15:34:41.353Z,17.57
2019-04-26T15:37:10.237Z,19.00
2019-04-26T15:39:44.470Z,20.67
2019-04-26T15:42:25.228Z,19.50
2019-04-26T15:45:08.082Z,19.70
2019-04-26T15:48:02.277Z,14.60
2019-04-26T15:50:40.886Z,15.03
2019-04-26T15:53:12.759Z,14.10
2019-04-26T15:56:03.742Z,13.00
2019-04-26T15:58:33.944Z,15.17
2019-04-26T16:01:06.709Z,14.93
2019-04-26T16:03:36.875Z,14.73
2019-04-26T16:06:08.200Z,11.93
2019-04-26T16:08:42.542Z,9.87
2019-04-26T16:11:18.866Z,10.70
2019-04-26T16:13:56.298Z,11.03
2019-04-26T16:16:34.163Z,12.93
2019-04-26T16:19:02.989Z,13.57
2019-04-26T16:21:36.284Z,9.23
2019-04-26T16:24:08.186Z,10.90
2019-04-26T16:26:37.242Z,10.43
2019-04-26T16:29:09.125Z,9.37
2019-04-26T16:31:42.139Z,11.53
2019-04-26T16:34:14.867Z,10.17
2019-04-26T16:36:45.248Z,9.47
2019-04-26T16:39:16.164Z,14.17
2019-04-26T16:41:46.348Z,10.07
2019-04-26T16:44:19.320Z,14.17
2019-04-26T16:46:47.226Z,13.03
2019-04-26T16:49:15.625Z,14.10
2019-04-26T16:51:44.421Z,14.17
2019-04-26T16:54:20.978Z,13.67
2019-04-26T16:56:45.240Z,13.30
2019-04-26T16:59:22.560Z,16.00
2019-04-26T17:01:47.423Z,15.23
2019-04-26T17:04:20.060Z,15.00
2019-04-26T17:06:46.951Z,15.40
2019-04-26T17:09:17.147Z,15.53
2019-04-26T17:11:49.627Z,17.23
2019-04-26T17:14:18.381Z,17.63
2019-04-26T17:16:57.343Z,17.53
2019-04-26T17:19:29.644Z,19.07
2019-04-26T17:22:02.112Z,18.97
2019-04-26T17:24:53.547Z,20.17
2019-04-26T17:27:29.253Z,20.00
2019-04-26T17:29:58.335Z,19.87
2019-04-26T17:32:31.408Z,21.00
2019-04-26T17:35:07.353Z,21.63
2019-04-26T17:37:35.384Z,21.63
2019-04-26T17:40:07.130Z,22.13
2019-04-26T17:42:55.902Z,21.27
2019-04-26T17:45:27.316Z,20.87
2019-04-26T17:48:01.856Z,22.40
2019-04-26T17:50:30.972Z,26.20
2019-04-26T17:53:10.749Z,23.93
2019-04-26T17:55:50.284Z,22.17
2019-04-26T17:58:27.599Z,23.60
2019-04-26T18:00:52.115Z,23.57
2019-04-26T18:03:25.255Z,27.27
2019-04-26T18:06:13.925Z,23.87
2019-04-26T18:08:51.863Z,23.67
2019-04-26T18:11:22.435Z,28.70
2019-04-26T18:13:52.212Z,23.80
2019-04-26T18:16:29.259Z,23.80
2019-04-26T18:19:15.715Z,23.03
2019-04-26T18:21:59.773Z,22.67
2019-04-26T18:24:40.383Z,22.63
2019-04-26T18:27:03.821Z,23.10
2019-04-26T18:29:33.669Z,22.27
2019-04-26T18:32:04.968Z,23.30
2019-04-26T18:34:40.523Z,20.97
2019-04-26T18:37:15.096Z,20.70
2019-04-26T18:39:48.063Z,22.47
2019-04-26T18:42:20.259Z,23.23
2019-04-26T18:44:51.055Z,22.73
2019-04-26T18:47:28.577Z,22.80
2019-04-26T18:50:01.308Z,22.40
2019-04-26T18:52:33.054Z,22.00
2019-04-26T18:55:06.576Z,22.03
2019-04-26T18:57:47.349Z,23.33
2019-04-26T19:00:21.585Z,22.77
2019-04-26T19:02:56.750Z,23.27
2019-04-26T19:05:30.450Z,23.57
2019-04-26T19:08:00.653Z,20.27
2019-04-26T19:10:58.071Z,23.00
2019-04-26T19:13:37.596Z,23.33
2019-04-26T19:16:21.787Z,22.47
2019-04-26T19:18:52.232Z,20.17
2019-04-26T19:21:40.539Z,24.53
2019-04-26T19:24:19.482Z,22.27
2019-04-26T19:27:01.745Z,23.30
2019-04-26T19:29:35.909Z,26.10
2019-04-26T19:32:06.410Z,27.13
2019-04-26T19:34:43.835Z,29.40
2019-04-26T19:37:17.275Z,24.33
2019-04-26T19:39:47.516Z,23.43
2019-04-26T19:42:16.359Z,26.47
2019-04-26T19:45:09.440Z,24.80
2019-04-26T19:47:25.038Z,26.30
2019-04-26T19:50:03.230Z,27.40
2019-04-26T19:52:46.827Z,28.37
2019-04-26T19:55:28.956Z,30.17
2019-04-26T19:58:09.697Z,30.60
2019-04-26T20:00:43.396Z,27.57
2019-04-26T20:03:18.605Z,32.33
2019-04-26T20:06:00.267Z,43.13
2019-04-26T20:08:35.488Z,29.37
2019-04-26T20:11:06.837Z,29.07
2019-04-26T20:13:42.630Z,31.93
2019-04-26T20:16:14.179Z,28.03
2019-04-26T20:18:52.353Z,31.53
2019-04-26T20:21:22.828Z,30.23
2019-04-26T20:23:54.479Z,32.03
2019-04-26T20:26:22.684Z,31.90
2019-04-26T20:28:54.277Z,29.00
2019-04-26T20:31:27.843Z,30.00
2019-04-26T20:33:58.484Z,32.50
2019-04-26T20:36:28.583Z,34.70
2019-04-26T20:39:12.451Z,34.67
2019-04-26T20:41:46.793Z,33.40
2019-04-26T20:44:28.880Z,30.87
2019-04-26T20:46:52.873Z,32.20
2019-04-26T20:49:22.453Z,34.00
2019-04-26T20:51:51.907Z,35.17
2019-04-26T20:54:29.495Z,33.17
2019-04-26T20:57:01.789Z,32.30
2019-04-26T20:59:30.876Z,32.63
2019-04-26T21:02:05.458Z,32.90
2019-04-26T21:04:38.282Z,34.70
2019-04-26T21:07:06.683Z,34.77
2019-04-26T21:09:40.822Z,33.30
2019-04-26T21:12:07.902Z,32.83
2019-04-26T21:14:45.538Z,34.13
2019-04-26T21:17:24.243Z,31.73
2019-04-26T21:19:58.426Z,30.90
2019-04-26T21:22:31.613Z,28.10
2019-04-26T21:28:24.933Z,31.73
2019-04-26T21:31:07.608Z,33.43
2019-04-26T21:33:55.310Z,30.07
2019-04-26T21:36:27.290Z,34.10
2019-04-26T21:39:07.513Z,30.33
2019-04-26T21:41:45.129Z,32.43
2019-04-26T21:44:15.831Z,31.47
2019-04-26T21:46:49.649Z,32.37
2019-04-26T21:49:20.200Z,32.57
2019-04-26T21:51:54.220Z,32.40
2019-04-26T21:54:19.467Z,32.77
2019-04-26T21:56:49.966Z,31.30
2019-04-26T21:59:18.676Z,30.77
2019-04-26T22:01:58.797Z,31.63
2019-04-26T22:04:34.184Z,30.47
2019-04-26T22:07:05.007Z,30.13
2019-04-26T22:09:55.459Z,32.80
2019-04-26T22:12:27.392Z,31.93
2019-04-26T22:15:03.495Z,34.93
2019-04-26T22:17:34.788Z,32.10
2019-04-26T22:20:12.904Z,33.50
2019-04-26T22:22:44.304Z,34.20
2019-04-26T22:25:22.731Z,32.93
2019-04-26T22:28:00.095Z,30.10
2019-04-26T22:30:44.088Z,31.80
2019-04-26T22:33:13.114Z,31.47
2019-04-26T22:35:43.221Z,34.97
2019-04-26T22:38:17.555Z,33.40
2019-04-26T22:40:48.558Z,33.40
2019-04-26T22:43:26.384Z,33.70
2019-04-26T22:46:05.005Z,31.70
2019-04-26T22:48:36.292Z,32.10
2019-04-26T22:51:06.647Z,31.27
2019-04-26T22:53:35.419Z,33.53
2019-04-26T22:56:05.573Z,34.70
2019-04-26T22:58:34.286Z,34.53
2019-04-26T23:01:06.207Z,32.63
2019-04-26T23:03:41.091Z,31.70
2019-04-26T23:06:33.729Z,33.60
2019-04-26T23:09:11.526Z,34.53
2019-04-26T23:11:54.831Z,34.10
2019-04-26T23:14:59.435Z,37.07
2019-04-26T23:17:37.150Z,36.23
2019-04-26T23:20:29.116Z,38.30
2019-04-26T23:22:55.768Z,34.80
2019-04-26T23:25:27.790Z,38.80
2019-04-26T23:27:58.167Z,37.17
2019-04-26T23:30:27.749Z,34.83
2019-04-26T23:32:58.289Z,33.87
2019-04-26T23:35:43.252Z,37.20
2019-04-26T23:38:21.347Z,36.57
2019-04-26T23:41:01.089Z,32.80
2019-04-26T23:43:30.929Z,44.70
2019-04-26T23:45:59.589Z,37.77
2019-04-26T23:48:28.264Z,40.93
2019-04-26T23:50:59.961Z,37.20
2019-04-26T23:53:28.170Z,37.10
2019-04-26T23:55:56.849Z,34.40
2019-04-26T23:58:25.471Z,34.87
